Weather at High River Balloonport

Public forecast

Using degrees Celsius for public forecast. Weather courtesy of forecast.io.

Closest aviation weather report (METAR) to High River Balloonport

Closest report is Calgary International Airport, 32.1 nm (59.5 km) N.

2024/05/22 18:12 (retrieved 35 minutes ago)

CYYC 221812Z 08005KT 10SM BKN050 OVC074 08/04 A2986 RMK SC5AC3 SLP137

Closest aviation forecast (TAF) to High River Balloonport

Closest forecast is Calgary International Airport, 32.1 nm (59.5 km) N.

2024/05/22 18:51 (retrieved 0 seconds ago)

TAF TAF CYYC 221749Z 2218/2318 08010KT P6SM SCT008 OVC015 TEMPO 2218/2219 5SM -RA BR BKN008 OVC012 FM221900 08010G20KT P6SM SCT012 OVC020 TEMPO 2219/2220 6SM -RA BR OVC012 FM222000 05012G22KT P6SM -SHRA SCT020 BKN040 TEMPO 2220/2222 6SM -SHRA BR BKN020 OVC030 FM222200 03012G22KT P6SM VCSH SCT025 BKN040 TEMPO 2222/2302 P6SM -SHRA BKN025 FM230200 05012KT P6SM FEW012 BKN025 TEMPO 2302/2307 5SM -SHRA BR BKN012 OVC020 BECMG 2303/2305 36008KT FM230700 33006KT P6SM FEW006 OVC012 TEMPO 2307/2313 3SM -RA BR OVC006 FM231300 35008KT 6SM -RA BR SCT004 OVC008 TEMPO 2313/2316 2SM -RA BR OVC004 FM231600 33006KT P6SM -SHRA OVC010 TEMPO 2317/2318 P6SM NSW SCT010 OVC020 RMK NXT FCST BY 222100Z